sensor_id;sensor_type;location;lat;lon;timestamp;temperature;humidity
28546;DHT22;15749;49.606;8.738;2023-07-09T00:00:03;28.60;71.20
28546;DHT22;15749;49.606;8.738;2023-07-09T00:02:39;28.50;71.50
28546;DHT22;15749;49.606;8.738;2023-07-09T00:05:28;28.60;71.30
28546;DHT22;15749;49.606;8.738;2023-07-09T00:08:21;28.50;71.00
28546;DHT22;15749;49.606;8.738;2023-07-09T00:10:55;28.50;72.10
28546;DHT22;15749;49.606;8.738;2023-07-09T00:13:28;28.50;70.90
28546;DHT22;15749;49.606;8.738;2023-07-09T00:16:11;28.50;71.30
28546;DHT22;15749;49.606;8.738;2023-07-09T00:18:49;28.40;72.10
28546;DHT22;15749;49.606;8.738;2023-07-09T00:21:21;28.50;72.40
28546;DHT22;15749;49.606;8.738;2023-07-09T00:23:52;28.40;71.70
28546;DHT22;15749;49.606;8.738;2023-07-09T00:26:22;28.30;71.80
28546;DHT22;15749;49.606;8.738;2023-07-09T00:28:52;28.30;71.80
28546;DHT22;15749;49.606;8.738;2023-07-09T00:31:25;28.30;72.00
28546;DHT22;15749;49.606;8.738;2023-07-09T00:33:56;28.30;72.30
28546;DHT22;15749;49.606;8.738;2023-07-09T00:36:32;28.30;72.20
28546;DHT22;15749;49.606;8.738;2023-07-09T00:39:14;28.30;72.60
28546;DHT22;15749;49.606;8.738;2023-07-09T00:41:55;28.20;73.30
28546;DHT22;15749;49.606;8.738;2023-07-09T00:44:28;28.20;72.90
28546;DHT22;15749;49.606;8.738;2023-07-09T00:47:31;28.30;72.70
28546;DHT22;15749;49.606;8.738;2023-07-09T00:53:15;28.20;73.10
28546;DHT22;15749;49.606;8.738;2023-07-09T00:56:01;28.10;72.90
28546;DHT22;15749;49.606;8.738;2023-07-09T00:58:43;28.00;72.70
28546;DHT22;15749;49.606;8.738;2023-07-09T01:01:18;28.10;72.10
28546;DHT22;15749;49.606;8.738;2023-07-09T01:03:53;28.00;72.30
28546;DHT22;15749;49.606;8.738;2023-07-09T01:06:30;28.00;72.50
28546;DHT22;15749;49.606;8.738;2023-07-09T01:09:04;27.90;72.50
28546;DHT22;15749;49.606;8.738;2023-07-09T01:11:37;27.90;72.50
28546;DHT22;15749;49.606;8.738;2023-07-09T01:14:16;27.90;72.60
28546;DHT22;15749;49.606;8.738;2023-07-09T01:16:59;27.90;72.40
28546;DHT22;15749;49.606;8.738;2023-07-09T01:19:42;27.80;73.10
28546;DHT22;15749;49.606;8.738;2023-07-09T01:22:27;27.80;73.30
28546;DHT22;15749;49.606;8.738;2023-07-09T01:25:11;27.80;72.70
28546;DHT22;15749;49.606;8.738;2023-07-09T01:27:50;27.80;72.80
28546;DHT22;15749;49.606;8.738;2023-07-09T01:30:36;27.80;72.70
28546;DHT22;15749;49.606;8.738;2023-07-09T01:33:17;27.70;73.10
28546;DHT22;15749;49.606;8.738;2023-07-09T01:36:02;27.80;72.80
28546;DHT22;15749;49.606;8.738;2023-07-09T01:38:48;27.70;72.90
28546;DHT22;15749;49.606;8.738;2023-07-09T01:41:31;27.70;73.70
28546;DHT22;15749;49.606;8.738;2023-07-09T01:44:08;27.70;73.20
28546;DHT22;15749;49.606;8.738;2023-07-09T01:46:48;27.60;72.90
28546;DHT22;15749;49.606;8.738;2023-07-09T01:49:27;27.60;73.60
28546;DHT22;15749;49.606;8.738;2023-07-09T01:52:07;27.60;73.20
28546;DHT22;15749;49.606;8.738;2023-07-09T01:54:48;27.60;73.40
28546;DHT22;15749;49.606;8.738;2023-07-09T01:57:23;27.50;73.50
28546;DHT22;15749;49.606;8.738;2023-07-09T02:00:05;27.50;73.60
28546;DHT22;15749;49.606;8.738;2023-07-09T02:02:47;27.60;74.00
28546;DHT22;15749;49.606;8.738;2023-07-09T02:05:33;27.50;73.40
28546;DHT22;15749;49.606;8.738;2023-07-09T02:08:05;27.50;73.50
28546;DHT22;15749;49.606;8.738;2023-07-09T02:10:43;27.40;72.90
28546;DHT22;15749;49.606;8.738;2023-07-09T02:13:21;27.40;73.90
28546;DHT22;15749;49.606;8.738;2023-07-09T02:15:59;27.40;73.60
28546;DHT22;15749;49.606;8.738;2023-07-09T02:18:34;27.30;73.50
28546;DHT22;15749;49.606;8.738;2023-07-09T02:21:08;27.30;73.60
28546;DHT22;15749;49.606;8.738;2023-07-09T02:23:44;27.30;73.10
28546;DHT22;15749;49.606;8.738;2023-07-09T02:26:30;27.30;74.00
28546;DHT22;15749;49.606;8.738;2023-07-09T02:29:06;27.20;73.50
28546;DHT22;15749;49.606;8.738;2023-07-09T02:31:38;27.30;73.50
28546;DHT22;15749;49.606;8.738;2023-07-09T02:34:08;27.20;73.70
28546;DHT22;15749;49.606;8.738;2023-07-09T02:36:42;27.20;73.30
28546;DHT22;15749;49.606;8.738;2023-07-09T02:39:22;27.20;73.60
28546;DHT22;15749;49.606;8.738;2023-07-09T02:42:07;27.20;74.10
28546;DHT22;15749;49.606;8.738;2023-07-09T02:44:42;27.20;74.50
28546;DHT22;15749;49.606;8.738;2023-07-09T02:47:21;27.00;73.80
28546;DHT22;15749;49.606;8.738;2023-07-09T02:49:58;27.10;73.60
28546;DHT22;15749;49.606;8.738;2023-07-09T02:52:42;27.10;73.90
28546;DHT22;15749;49.606;8.738;2023-07-09T02:55:22;27.10;73.70
28546;DHT22;15749;49.606;8.738;2023-07-09T02:58:08;27.00;73.80
28546;DHT22;15749;49.606;8.738;2023-07-09T03:00:48;27.00;73.90
28546;DHT22;15749;49.606;8.738;2023-07-09T03:03:25;27.10;74.50
28546;DHT22;15749;49.606;8.738;2023-07-09T03:06:04;27.00;73.90
28546;DHT22;15749;49.606;8.738;2023-07-09T03:08:48;27.00;74.60
28546;DHT22;15749;49.606;8.738;2023-07-09T03:11:19;26.90;74.10
28546;DHT22;15749;49.606;8.738;2023-07-09T03:13:51;26.90;74.20
28546;DHT22;15749;49.606;8.738;2023-07-09T03:16:22;26.70;74.50
28546;DHT22;15749;49.606;8.738;2023-07-09T03:18:56;26.90;73.80
28546;DHT22;15749;49.606;8.738;2023-07-09T03:21:37;26.90;74.30
28546;DHT22;15749;49.606;8.738;2023-07-09T03:24:14;26.80;74.30
28546;DHT22;15749;49.606;8.738;2023-07-09T03:26:59;26.80;73.70
28546;DHT22;15749;49.606;8.738;2023-07-09T03:29:38;26.80;74.70
28546;DHT22;15749;49.606;8.738;2023-07-09T03:32:22;26.80;74.30
28546;DHT22;15749;49.606;8.738;2023-07-09T03:34:54;26.70;74.40
28546;DHT22;15749;49.606;8.738;2023-07-09T03:37:29;26.70;73.50
28546;DHT22;15749;49.606;8.738;2023-07-09T03:40:19;26.70;73.80
28546;DHT22;15749;49.606;8.738;2023-07-09T03:42:59;26.70;75.00
28546;DHT22;15749;49.606;8.738;2023-07-09T03:45:39;26.70;74.60
28546;DHT22;15749;49.606;8.738;2023-07-09T03:48:21;26.60;73.90
28546;DHT22;15749;49.606;8.738;2023-07-09T03:50:57;26.60;74.30
28546;DHT22;15749;49.606;8.738;2023-07-09T03:53:28;26.60;74.50
28546;DHT22;15749;49.606;8.738;2023-07-09T03:56:04;26.60;74.10
28546;DHT22;15749;49.606;8.738;2023-07-09T03:58:40;26.50;74.80
28546;DHT22;15749;49.606;8.738;2023-07-09T04:01:23;26.50;74.60
28546;DHT22;15749;49.606;8.738;2023-07-09T04:03:57;26.40;74.40
28546;DHT22;15749;49.606;8.738;2023-07-09T04:06:28;26.40;74.10
28546;DHT22;15749;49.606;8.738;2023-07-09T04:08:59;26.40;74.30
28546;DHT22;15749;49.606;8.738;2023-07-09T04:11:30;26.50;74.40
28546;DHT22;15749;49.606;8.738;2023-07-09T04:14:01;26.50;74.70
28546;DHT22;15749;49.606;8.738;2023-07-09T04:16:38;26.40;74.50
28546;DHT22;15749;49.606;8.738;2023-07-09T04:19:09;26.40;74.60
28546;DHT22;15749;49.606;8.738;2023-07-09T04:21:43;26.40;74.60
28546;DHT22;15749;49.606;8.738;2023-07-09T04:24:17;26.30;74.70
28546;DHT22;15749;49.606;8.738;2023-07-09T04:26:48;26.40;75.10
28546;DHT22;15749;49.606;8.738;2023-07-09T04:29:28;26.40;75.00
28546;DHT22;15749;49.606;8.738;2023-07-09T04:32:11;26.40;75.10
28546;DHT22;15749;49.606;8.738;2023-07-09T04:34:45;26.40;75.20
28546;DHT22;15749;49.606;8.738;2023-07-09T04:37:18;26.30;74.90
28546;DHT22;15749;49.606;8.738;2023-07-09T04:39:51;26.30;74.90
28546;DHT22;15749;49.606;8.738;2023-07-09T04:42:24;26.30;74.20
28546;DHT22;15749;49.606;8.738;2023-07-09T04:44:58;26.30;74.70
28546;DHT22;15749;49.606;8.738;2023-07-09T04:47:30;26.20;74.70
28546;DHT22;15749;49.606;8.738;2023-07-09T04:50:01;26.20;74.90
28546;DHT22;15749;49.606;8.738;2023-07-09T04:52:33;26.20;75.40
28546;DHT22;15749;49.606;8.738;2023-07-09T04:55:05;26.20;74.80
28546;DHT22;15749;49.606;8.738;2023-07-09T04:57:37;26.20;75.70
28546;DHT22;15749;49.606;8.738;2023-07-09T05:00:12;26.20;74.70
28546;DHT22;15749;49.606;8.738;2023-07-09T05:02:46;26.20;75.70
28546;DHT22;15749;49.606;8.738;2023-07-09T05:05:20;26.20;75.00
28546;DHT22;15749;49.606;8.738;2023-07-09T05:08:00;26.20;75.00
28546;DHT22;15749;49.606;8.738;2023-07-09T05:10:34;26.20;74.90
28546;DHT22;15749;49.606;8.738;2023-07-09T05:13:16;26.20;75.70
28546;DHT22;15749;49.606;8.738;2023-07-09T05:15:55;26.10;75.50
28546;DHT22;15749;49.606;8.738;2023-07-09T05:18:44;26.10;75.20
28546;DHT22;15749;49.606;8.738;2023-07-09T05:21:19;26.10;76.30
28546;DHT22;15749;49.606;8.738;2023-07-09T05:23:54;26.10;75.40
28546;DHT22;15749;49.606;8.738;2023-07-09T05:26:25;26.20;76.40
28546;DHT22;15749;49.606;8.738;2023-07-09T05:29:03;26.10;75.40
28546;DHT22;15749;49.606;8.738;2023-07-09T05:31:38;26.10;76.00
28546;DHT22;15749;49.606;8.738;2023-07-09T05:34:12;26.10;75.10
28546;DHT22;15749;49.606;8.738;2023-07-09T05:36:49;26.10;75.20
28546;DHT22;15749;49.606;8.738;2023-07-09T05:39:23;26.10;75.60
28546;DHT22;15749;49.606;8.738;2023-07-09T05:42:00;26.10;75.80
28546;DHT22;15749;49.606;8.738;2023-07-09T05:44:44;26.10;75.90
28546;DHT22;15749;49.606;8.738;2023-07-09T05:47:16;26.10;76.40
28546;DHT22;15749;49.606;8.738;2023-07-09T05:49:55;26.10;75.90
28546;DHT22;15749;49.606;8.738;2023-07-09T05:52:28;26.10;76.80
28546;DHT22;15749;49.606;8.738;2023-07-09T05:55:06;26.10;76.80
28546;DHT22;15749;49.606;8.738;2023-07-09T05:57:41;26.20;77.00
28546;DHT22;15749;49.606;8.738;2023-07-09T06:00:25;26.10;76.40
28546;DHT22;15749;49.606;8.738;2023-07-09T06:03:05;26.20;76.80
28546;DHT22;15749;49.606;8.738;2023-07-09T06:05:38;26.10;77.80
28546;DHT22;15749;49.606;8.738;2023-07-09T06:08:09;26.20;77.30
28546;DHT22;15749;49.606;8.738;2023-07-09T06:10:50;26.20;77.00
28546;DHT22;15749;49.606;8.738;2023-07-09T06:13:22;26.20;78.10
28546;DHT22;15749;49.606;8.738;2023-07-09T06:15:55;26.20;77.30
28546;DHT22;15749;49.606;8.738;2023-07-09T06:18:35;26.20;77.10
28546;DHT22;15749;49.606;8.738;2023-07-09T06:21:08;26.30;77.30
28546;DHT22;15749;49.606;8.738;2023-07-09T06:23:42;26.30;77.40
28546;DHT22;15749;49.606;8.738;2023-07-09T06:26:13;26.30;77.40
28546;DHT22;15749;49.606;8.738;2023-07-09T06:28:47;26.30;77.40
28546;DHT22;15749;49.606;8.738;2023-07-09T06:31:21;26.40;77.60
28546;DHT22;15749;49.606;8.738;2023-07-09T06:33:54;26.40;77.80
28546;DHT22;15749;49.606;8.738;2023-07-09T06:36:28;26.40;77.90
28546;DHT22;15749;49.606;8.738;2023-07-09T06:38:58;26.40;78.20
28546;DHT22;15749;49.606;8.738;2023-07-09T06:41:30;26.40;78.10
28546;DHT22;15749;49.606;8.738;2023-07-09T06:44:09;26.50;78.20
28546;DHT22;15749;49.606;8.738;2023-07-09T06:46:40;26.50;78.20
28546;DHT22;15749;49.606;8.738;2023-07-09T06:49:26;26.50;78.20
28546;DHT22;15749;49.606;8.738;2023-07-09T06:52:06;26.60;78.60
28546;DHT22;15749;49.606;8.738;2023-07-09T06:54:43;26.60;78.70
28546;DHT22;15749;49.606;8.738;2023-07-09T06:57:25;26.60;78.00
28546;DHT22;15749;49.606;8.738;2023-07-09T07:00:08;26.70;77.80
28546;DHT22;15749;49.606;8.738;2023-07-09T07:02:52;26.70;78.50
28546;DHT22;15749;49.606;8.738;2023-07-09T07:05:26;26.70;78.30
28546;DHT22;15749;49.606;8.738;2023-07-09T07:07:59;26.80;78.40
28546;DHT22;15749;49.606;8.738;2023-07-09T07:10:35;26.80;78.80
28546;DHT22;15749;49.606;8.738;2023-07-09T07:13:10;26.90;78.30
28546;DHT22;15749;49.606;8.738;2023-07-09T07:15:48;26.90;78.40
28546;DHT22;15749;49.606;8.738;2023-07-09T07:18:25;26.90;78.80
28546;DHT22;15749;49.606;8.738;2023-07-09T07:20:56;27.00;78.90
28546;DHT22;15749;49.606;8.738;2023-07-09T07:23:34;27.10;78.70
28546;DHT22;15749;49.606;8.738;2023-07-09T07:26:04;27.10;78.90
28546;DHT22;15749;49.606;8.738;2023-07-09T07:28:41;27.10;78.50
28546;DHT22;15749;49.606;8.738;2023-07-09T07:31:12;27.20;78.60
28546;DHT22;15749;49.606;8.738;2023-07-09T07:33:52;27.20;78.60
28546;DHT22;15749;49.606;8.738;2023-07-09T07:36:22;27.20;78.40
28546;DHT22;15749;49.606;8.738;2023-07-09T07:39:00;27.30;78.50
28546;DHT22;15749;49.606;8.738;2023-07-09T07:41:30;27.30;78.60
28546;DHT22;15749;49.606;8.738;2023-07-09T07:44:00;27.40;78.50
28546;DHT22;15749;49.606;8.738;2023-07-09T07:46:32;27.40;78.20
28546;DHT22;15749;49.606;8.738;2023-07-09T07:49:02;27.50;78.80
28546;DHT22;15749;49.606;8.738;2023-07-09T07:51:35;27.50;78.80
28546;DHT22;15749;49.606;8.738;2023-07-09T07:54:06;27.50;78.40
28546;DHT22;15749;49.606;8.738;2023-07-09T07:56:40;27.60;78.80
28546;DHT22;15749;49.606;8.738;2023-07-09T07:59:12;27.70;78.70
28546;DHT22;15749;49.606;8.738;2023-07-09T08:01:46;27.60;78.50
28546;DHT22;15749;49.606;8.738;2023-07-09T08:04:20;27.80;78.90
28546;DHT22;15749;49.606;8.738;2023-07-09T08:06:50;27.80;78.50
28546;DHT22;15749;49.606;8.738;2023-07-09T08:09:21;27.90;78.60
28546;DHT22;15749;49.606;8.738;2023-07-09T08:11:54;27.90;78.60
28546;DHT22;15749;49.606;8.738;2023-07-09T08:14:24;28.00;78.70
28546;DHT22;15749;49.606;8.738;2023-07-09T08:16:54;28.10;78.50
28546;DHT22;15749;49.606;8.738;2023-07-09T08:19:24;28.10;78.30
28546;DHT22;15749;49.606;8.738;2023-07-09T08:21:53;28.20;78.70
28546;DHT22;15749;49.606;8.738;2023-07-09T08:24:24;28.30;78.40
28546;DHT22;15749;49.606;8.738;2023-07-09T08:26:54;28.30;78.20
28546;DHT22;15749;49.606;8.738;2023-07-09T08:29:28;28.40;78.40
28546;DHT22;15749;49.606;8.738;2023-07-09T08:31:57;28.40;78.40
28546;DHT22;15749;49.606;8.738;2023-07-09T08:34:27;28.50;78.20
28546;DHT22;15749;49.606;8.738;2023-07-09T08:36:56;28.60;78.20
28546;DHT22;15749;49.606;8.738;2023-07-09T08:39:27;28.60;78.20
28546;DHT22;15749;49.606;8.738;2023-07-09T08:42:00;28.70;78.20
28546;DHT22;15749;49.606;8.738;2023-07-09T08:44:58;28.80;78.00
28546;DHT22;15749;49.606;8.738;2023-07-09T08:47:39;28.90;78.20
28546;DHT22;15749;49.606;8.738;2023-07-09T08:50:15;29.00;78.00
28546;DHT22;15749;49.606;8.738;2023-07-09T08:52:47;29.10;78.00
28546;DHT22;15749;49.606;8.738;2023-07-09T08:55:21;29.10;77.80
28546;DHT22;15749;49.606;8.738;2023-07-09T08:57:55;29.20;77.90
28546;DHT22;15749;49.606;8.738;2023-07-09T09:00:31;29.20;77.80
28546;DHT22;15749;49.606;8.738;2023-07-09T09:03:07;29.30;77.70
28546;DHT22;15749;49.606;8.738;2023-07-09T09:05:45;29.40;77.70
28546;DHT22;15749;49.606;8.738;2023-07-09T09:08:29;29.30;77.50
28546;DHT22;15749;49.606;8.738;2023-07-09T09:11:13;29.50;77.60
28546;DHT22;15749;49.606;8.738;2023-07-09T09:13:45;29.60;77.40
28546;DHT22;15749;49.606;8.738;2023-07-09T09:16:21;29.70;77.30
28546;DHT22;15749;49.606;8.738;2023-07-09T09:18:57;29.70;77.20
28546;DHT22;15749;49.606;8.738;2023-07-09T09:21:32;29.80;79.10
28546;DHT22;15749;49.606;8.738;2023-07-09T09:24:14;29.90;79.90
28546;DHT22;15749;49.606;8.738;2023-07-09T09:26:48;29.90;79.90
28546;DHT22;15749;49.606;8.738;2023-07-09T09:29:19;30.00;79.70
28546;DHT22;15749;49.606;8.738;2023-07-09T09:31:53;30.00;79.20
28546;DHT22;15749;49.606;8.738;2023-07-09T09:34:26;30.10;79.30
28546;DHT22;15749;49.606;8.738;2023-07-09T09:36:58;30.10;79.30
28546;DHT22;15749;49.606;8.738;2023-07-09T09:39:28;30.10;79.00
28546;DHT22;15749;49.606;8.738;2023-07-09T09:41:59;30.10;78.90
28546;DHT22;15749;49.606;8.738;2023-07-09T09:44:29;30.10;79.10
28546;DHT22;15749;49.606;8.738;2023-07-09T09:47:00;30.10;79.10
28546;DHT22;15749;49.606;8.738;2023-07-09T09:49:38;30.10;79.00
28546;DHT22;15749;49.606;8.738;2023-07-09T09:52:13;30.10;79.20
28546;DHT22;15749;49.606;8.738;2023-07-09T09:54:50;30.10;79.20
28546;DHT22;15749;49.606;8.738;2023-07-09T09:57:24;30.10;78.90
28546;DHT22;15749;49.606;8.738;2023-07-09T09:59:54;30.10;79.60
28546;DHT22;15749;49.606;8.738;2023-07-09T10:02:25;30.20;78.90
28546;DHT22;15749;49.606;8.738;2023-07-09T10:04:55;30.20;78.70
28546;DHT22;15749;49.606;8.738;2023-07-09T10:07:37;30.20;78.60
28546;DHT22;15749;49.606;8.738;2023-07-09T10:10:13;30.20;78.70
28546;DHT22;15749;49.606;8.738;2023-07-09T10:12:49;30.20;78.80
28546;DHT22;15749;49.606;8.738;2023-07-09T10:15:31;30.30;78.80
28546;DHT22;15749;49.606;8.738;2023-07-09T10:18:17;30.30;79.20
28546;DHT22;15749;49.606;8.738;2023-07-09T10:21:05;30.30;79.10
28546;DHT22;15749;49.606;8.738;2023-07-09T10:23:45;30.40;79.00
28546;DHT22;15749;49.606;8.738;2023-07-09T10:26:22;30.40;79.10
28546;DHT22;15749;49.606;8.738;2023-07-09T10:29:27;30.40;78.70
28546;DHT22;15749;49.606;8.738;2023-07-09T10:32:16;30.50;78.90
28546;DHT22;15749;49.606;8.738;2023-07-09T10:34:56;30.50;78.90
28546;DHT22;15749;49.606;8.738;2023-07-09T10:37:51;30.60;78.40
28546;DHT22;15749;49.606;8.738;2023-07-09T10:40:31;30.60;79.10
28546;DHT22;15749;49.606;8.738;2023-07-09T10:43:06;30.70;78.80
28546;DHT22;15749;49.606;8.738;2023-07-09T10:45:47;30.80;78.90
28546;DHT22;15749;49.606;8.738;2023-07-09T10:48:31;30.80;78.50
28546;DHT22;15749;49.606;8.738;2023-07-09T10:51:10;30.80;79.20
28546;DHT22;15749;49.606;8.738;2023-07-09T10:53:48;30.90;78.60
28546;DHT22;15749;49.606;8.738;2023-07-09T10:56:23;30.90;78.40
28546;DHT22;15749;49.606;8.738;2023-07-09T10:59:01;30.90;78.20
28546;DHT22;15749;49.606;8.738;2023-07-09T11:01:38;31.00;78.30
28546;DHT22;15749;49.606;8.738;2023-07-09T11:04:25;31.10;77.90
28546;DHT22;15749;49.606;8.738;2023-07-09T11:07:02;31.10;77.90
28546;DHT22;15749;49.606;8.738;2023-07-09T11:09:35;31.20;77.80
28546;DHT22;15749;49.606;8.738;2023-07-09T11:12:11;31.20;77.80
28546;DHT22;15749;49.606;8.738;2023-07-09T11:14:47;31.20;77.60
28546;DHT22;15749;49.606;8.738;2023-07-09T11:17:23;31.20;77.50
28546;DHT22;15749;49.606;8.738;2023-07-09T11:19:55;31.30;77.50
28546;DHT22;15749;49.606;8.738;2023-07-09T11:22:34;31.30;77.40
28546;DHT22;15749;49.606;8.738;2023-07-09T11:25:08;31.40;77.00
28546;DHT22;15749;49.606;8.738;2023-07-09T11:27:50;31.50;77.10
28546;DHT22;15749;49.606;8.738;2023-07-09T11:30:25;31.50;76.60
28546;DHT22;15749;49.606;8.738;2023-07-09T11:32:59;31.60;76.50
28546;DHT22;15749;49.606;8.738;2023-07-09T11:35:51;31.60;76.50
28546;DHT22;15749;49.606;8.738;2023-07-09T11:38:23;31.70;76.30
28546;DHT22;15749;49.606;8.738;2023-07-09T11:40:55;31.80;76.20
28546;DHT22;15749;49.606;8.738;2023-07-09T11:43:27;31.80;76.20
28546;DHT22;15749;49.606;8.738;2023-07-09T11:46:13;31.90;75.70
28546;DHT22;15749;49.606;8.738;2023-07-09T11:48:48;31.90;75.40
28546;DHT22;15749;49.606;8.738;2023-07-09T11:51:26;32.00;75.40
28546;DHT22;15749;49.606;8.738;2023-07-09T11:54:03;32.10;74.70
28546;DHT22;15749;49.606;8.738;2023-07-09T11:56:33;32.10;75.00
28546;DHT22;15749;49.606;8.738;2023-07-09T11:59:02;32.10;73.90
28546;DHT22;15749;49.606;8.738;2023-07-09T12:01:36;32.20;73.60
28546;DHT22;15749;49.606;8.738;2023-07-09T12:04:14;32.20;73.40
28546;DHT22;15749;49.606;8.738;2023-07-09T12:06:45;32.30;72.80
28546;DHT22;15749;49.606;8.738;2023-07-09T12:09:16;32.30;73.20
28546;DHT22;15749;49.606;8.738;2023-07-09T12:11:49;32.30;72.90
28546;DHT22;15749;49.606;8.738;2023-07-09T12:14:21;32.40;73.00
28546;DHT22;15749;49.606;8.738;2023-07-09T12:16:52;32.40;72.50
28546;DHT22;15749;49.606;8.738;2023-07-09T12:19:24;32.40;72.70
28546;DHT22;15749;49.606;8.738;2023-07-09T12:21:59;32.50;72.20
28546;DHT22;15749;49.606;8.738;2023-07-09T12:24:30;32.50;72.30
28546;DHT22;15749;49.606;8.738;2023-07-09T12:27:18;32.60;72.40
28546;DHT22;15749;49.606;8.738;2023-07-09T12:29:52;32.60;72.10
28546;DHT22;15749;49.606;8.738;2023-07-09T12:32:23;32.60;71.60
28546;DHT22;15749;49.606;8.738;2023-07-09T12:34:56;32.70;71.40
28546;DHT22;15749;49.606;8.738;2023-07-09T12:37:29;32.70;71.20
28546;DHT22;15749;49.606;8.738;2023-07-09T12:40:00;32.70;71.30
28546;DHT22;15749;49.606;8.738;2023-07-09T12:42:32;32.80;71.00
28546;DHT22;15749;49.606;8.738;2023-07-09T12:45:04;32.80;70.90
28546;DHT22;15749;49.606;8.738;2023-07-09T12:47:34;32.80;70.90
28546;DHT22;15749;49.606;8.738;2023-07-09T12:50:19;32.80;70.90
28546;DHT22;15749;49.606;8.738;2023-07-09T12:52:50;32.90;70.90
28546;DHT22;15749;49.606;8.738;2023-07-09T12:55:21;32.90;70.50
28546;DHT22;15749;49.606;8.738;2023-07-09T12:57:55;32.90;70.40
28546;DHT22;15749;49.606;8.738;2023-07-09T13:00:29;33.00;70.20
28546;DHT22;15749;49.606;8.738;2023-07-09T13:03:00;33.00;69.70
28546;DHT22;15749;49.606;8.738;2023-07-09T13:05:32;33.00;69.60
28546;DHT22;15749;49.606;8.738;2023-07-09T13:08:02;33.00;69.40
28546;DHT22;15749;49.606;8.738;2023-07-09T13:10:40;33.00;69.70
28546;DHT22;15749;49.606;8.738;2023-07-09T13:13:13;33.00;69.50
28546;DHT22;15749;49.606;8.738;2023-07-09T13:15:44;33.10;69.30
28546;DHT22;15749;49.606;8.738;2023-07-09T13:18:18;33.10;68.50
28546;DHT22;15749;49.606;8.738;2023-07-09T13:20:49;33.10;68.40
28546;DHT22;15749;49.606;8.738;2023-07-09T13:23:23;33.10;68.00
28546;DHT22;15749;49.606;8.738;2023-07-09T13:25:54;33.10;67.90
28546;DHT22;15749;49.606;8.738;2023-07-09T13:28:28;33.10;67.70
28546;DHT22;15749;49.606;8.738;2023-07-09T13:31:00;33.20;68.10
28546;DHT22;15749;49.606;8.738;2023-07-09T13:33:37;33.20;67.80
28546;DHT22;15749;49.606;8.738;2023-07-09T13:36:08;33.20;67.50
28546;DHT22;15749;49.606;8.738;2023-07-09T13:38:38;33.20;67.20
28546;DHT22;15749;49.606;8.738;2023-07-09T13:41:13;33.30;67.40
28546;DHT22;15749;49.606;8.738;2023-07-09T13:43:45;33.30;67.80
28546;DHT22;15749;49.606;8.738;2023-07-09T13:46:16;33.30;67.20
28546;DHT22;15749;49.606;8.738;2023-07-09T13:48:46;33.30;66.90
28546;DHT22;15749;49.606;8.738;2023-07-09T13:51:19;33.30;66.70
28546;DHT22;15749;49.606;8.738;2023-07-09T13:53:52;33.30;66.70
28546;DHT22;15749;49.606;8.738;2023-07-09T13:56:23;33.40;66.20
28546;DHT22;15749;49.606;8.738;2023-07-09T13:58:53;33.30;66.40
28546;DHT22;15749;49.606;8.738;2023-07-09T14:01:24;33.40;66.40
28546;DHT22;15749;49.606;8.738;2023-07-09T14:03:55;33.40;65.90
28546;DHT22;15749;49.606;8.738;2023-07-09T14:06:28;33.40;66.20
28546;DHT22;15749;49.606;8.738;2023-07-09T14:09:00;33.40;65.60
28546;DHT22;15749;49.606;8.738;2023-07-09T14:11:31;33.40;66.00
28546;DHT22;15749;49.606;8.738;2023-07-09T14:14:00;33.40;65.80
28546;DHT22;15749;49.606;8.738;2023-07-09T14:16:31;33.40;65.50
28546;DHT22;15749;49.606;8.738;2023-07-09T14:19:02;33.40;66.00
28546;DHT22;15749;49.606;8.738;2023-07-09T14:21:33;33.40;65.60
28546;DHT22;15749;49.606;8.738;2023-07-09T14:24:17;33.40;65.60
28546;DHT22;15749;49.606;8.738;2023-07-09T14:26:49;33.40;65.50
28546;DHT22;15749;49.606;8.738;2023-07-09T14:29:19;33.40;65.80
28546;DHT22;15749;49.606;8.738;2023-07-09T14:31:49;33.40;65.70
28546;DHT22;15749;49.606;8.738;2023-07-09T14:34:22;33.40;65.80
28546;DHT22;15749;49.606;8.738;2023-07-09T14:36:59;33.40;65.70
28546;DHT22;15749;49.606;8.738;2023-07-09T14:39:29;33.50;65.40
28546;DHT22;15749;49.606;8.738;2023-07-09T14:41:59;33.50;65.30
28546;DHT22;15749;49.606;8.738;2023-07-09T14:44:30;33.50;65.40
28546;DHT22;15749;49.606;8.738;2023-07-09T14:47:01;33.40;65.20
28546;DHT22;15749;49.606;8.738;2023-07-09T14:49:30;33.50;65.00
28546;DHT22;15749;49.606;8.738;2023-07-09T14:52:02;33.50;65.00
28546;DHT22;15749;49.606;8.738;2023-07-09T14:54:32;33.50;64.90
28546;DHT22;15749;49.606;8.738;2023-07-09T14:57:03;33.50;64.90
28546;DHT22;15749;49.606;8.738;2023-07-09T14:59:37;33.50;64.60
28546;DHT22;15749;49.606;8.738;2023-07-09T15:02:20;33.50;64.50
28546;DHT22;15749;49.606;8.738;2023-07-09T15:04:52;33.50;64.30
28546;DHT22;15749;49.606;8.738;2023-07-09T15:07:25;33.60;64.70
28546;DHT22;15749;49.606;8.738;2023-07-09T15:09:59;33.60;64.20
28546;DHT22;15749;49.606;8.738;2023-07-09T15:12:32;33.60;64.20
28546;DHT22;15749;49.606;8.738;2023-07-09T15:15:16;33.60;64.30
28546;DHT22;15749;49.606;8.738;2023-07-09T15:17:48;33.60;63.90
28546;DHT22;15749;49.606;8.738;2023-07-09T15:20:22;33.60;63.80
28546;DHT22;15749;49.606;8.738;2023-07-09T15:22:56;33.50;64.30
28546;DHT22;15749;49.606;8.738;2023-07-09T15:25:28;33.60;64.50
28546;DHT22;15749;49.606;8.738;2023-07-09T15:27:59;33.50;64.40
28546;DHT22;15749;49.606;8.738;2023-07-09T15:30:30;33.60;64.10
28546;DHT22;15749;49.606;8.738;2023-07-09T15:33:00;33.60;63.70
28546;DHT22;15749;49.606;8.738;2023-07-09T15:35:36;33.50;63.10
28546;DHT22;15749;49.606;8.738;2023-07-09T15:38:21;33.60;63.20
28546;DHT22;15749;49.606;8.738;2023-07-09T15:40:59;33.60;63.30
28546;DHT22;15749;49.606;8.738;2023-07-09T15:43:30;33.60;63.00
28546;DHT22;15749;49.606;8.738;2023-07-09T15:45:59;33.60;62.50
28546;DHT22;15749;49.606;8.738;2023-07-09T15:48:32;33.60;62.90
28546;DHT22;15749;49.606;8.738;2023-07-09T15:51:04;33.60;62.30
28546;DHT22;15749;49.606;8.738;2023-07-09T15:53:39;33.70;62.70
28546;DHT22;15749;49.606;8.738;2023-07-09T15:56:13;33.70;61.90
28546;DHT22;15749;49.606;8.738;2023-07-09T15:58:48;33.70;62.60
28546;DHT22;15749;49.606;8.738;2023-07-09T16:01:19;33.70;62.20
28546;DHT22;15749;49.606;8.738;2023-07-09T16:03:54;33.70;61.90
28546;DHT22;15749;49.606;8.738;2023-07-09T16:06:28;33.80;62.10
28546;DHT22;15749;49.606;8.738;2023-07-09T16:09:06;33.80;61.70
28546;DHT22;15749;49.606;8.738;2023-07-09T16:11:36;33.80;61.60
28546;DHT22;15749;49.606;8.738;2023-07-09T16:14:17;33.80;61.60
28546;DHT22;15749;49.606;8.738;2023-07-09T16:16:51;33.80;61.80
28546;DHT22;15749;49.606;8.738;2023-07-09T16:19:24;33.80;61.70
28546;DHT22;15749;49.606;8.738;2023-07-09T16:21:59;33.80;62.30
28546;DHT22;15749;49.606;8.738;2023-07-09T16:24:34;33.80;62.10